Main page
METAR-TAF:

METAR-TAF

Airports :

Maiduguri International Airport

Maiduguri, Nigeria

latitude: 11-51N, longitude: 013-05E, elevation: 354 m

METAR: missing

Time: 20:25 (19:25 UTC)

Forecast

The report was made 8 hours and 25 minutes ago, at 11:00 UTC
Forecast valid from 25 at 12 UTC to 26 at 18 UTC
Wind 8 kt from the South/Southwest
Visibility 10 km or more
Few clouds at a height of 1300 ft
Temporary
from 25 at 14 UTC to 25 at 19 UTC
Scattered clouds at a height of 1400 ft
Few clouds at a height of 2100 ft, Cumulonimbus.

TAF: DNMA 251100Z 2512/2618 21008KT 9999 FEW013 TEMPO 2514/2519 SCT014 FEW021CB

Weather observations and forecasts of more than 4000 airports (METAR and TAF reports).

The available stations are represented by yellow and red dots on the map.

Hover mouse over dot to see the name of the station.

Then click to see weather observations and forecasts.

To change the map : click on the green buttons with a black cross to zoom in, on the green button with a dash to zoom out, or on the green arrows for adjacent maps.


METAR-TAF: